Time;durP1;ratioP1;P1;durP2;ratioP2;P2;SDS_P1;SDS_P2;PMS_P1;PMS_P2;Temp;Humidity;BMP_temperature;BMP_pressure;BME280_temperature;BME280_humidity;BME280_pressure;Samples;Min_cycle;Max_cycle;Signal;HPM_P1;HPM_P2
2022/04/20 00:01:29;;;;;;;4.03;2.97;;;;;;;14.14;37.03;101453.91;6339968;22;20015;-64
2022/04/20 00:03:55;;;;;;;6.22;2.97;;;;;;;14.13;37.13;101448.63;6339807;22;20060;-65
2022/04/20 00:06:22;;;;;;;3.47;3.10;;;;;;;14.10;37.06;101444.28;6339882;22;20017;-64
2022/04/20 00:08:50;;;;;;;10.32;3.50;;;;;;;14.10;37.07;101451.50;6339165;22;20018;-65
2022/04/20 00:11:17;;;;;;;5.28;3.72;;;;;;;14.07;37.13;101449.91;6338594;22;20436;-64
2022/04/20 00:13:43;;;;;;;3.70;3.22;;;;;;;14.07;37.14;101449.91;6340189;22;20040;-64
2022/04/20 00:16:10;;;;;;;7.70;3.50;;;;;;;14.05;37.46;101442.91;6339807;22;20014;-64
2022/04/20 00:18:36;;;;;;;5.38;2.90;;;;;;;14.02;37.49;101443.13;6339743;22;20451;-65
2022/04/20 00:21:03;;;;;;;4.80;3.58;;;;;;;13.99;37.39;101447.78;6339057;22;20013;-64
2022/04/20 00:23:29;;;;;;;4.10;3.13;;;;;;;13.95;37.39;101440.91;6339639;22;20015;-65
2022/04/20 00:25:56;;;;;;;3.78;3.35;;;;;;;13.91;37.27;101438.56;6339699;22;20346;-63
2022/04/20 00:28:22;;;;;;;3.85;3.40;;;;;;;13.88;37.54;101442.34;6339519;22;20023;-64
2022/04/20 00:30:49;;;;;;;6.70;3.67;;;;;;;13.84;37.55;101438.16;6339683;22;20021;-63
2022/04/20 00:33:15;;;;;;;7.60;3.67;;;;;;;13.80;37.72;101439.34;6311566;22;20019;-64
2022/04/20 00:35:43;;;;;;;3.95;3.53;;;;;;;13.78;37.67;101438.63;6312125;22;20021;-64
2022/04/20 00:38:09;;;;;;;4.70;3.30;;;;;;;13.75;37.85;101449.63;6339504;22;20056;-64
2022/04/20 00:40:36;;;;;;;4.47;3.80;;;;;;;13.71;37.72;101448.16;6311335;22;20010;-64
2022/04/20 00:43:04;;;;;;;5.90;3.83;;;;;;;13.65;37.71;101443.22;6311949;22;20171;-64
2022/04/20 00:45:32;;;;;;;5.43;3.88;;;;;;;13.59;37.77;101449.06;6338693;22;20011;-65
2022/04/20 00:48:00;;;;;;;4.82;3.83;;;;;;;13.52;38.00;101445.97;6339162;22;20010;-64
2022/04/20 00:50:27;;;;;;;3.80;3.40;;;;;;;13.47;37.94;101450.84;6311529;22;20017;-64
2022/04/20 00:52:54;;;;;;;5.43;3.83;;;;;;;13.41;38.03;101450.41;6311714;22;20106;-64
2022/04/20 00:55:29;;;;;;;8.63;3.60;;;;;;;13.36;38.21;101456.13;6339629;22;20015;-63
2022/04/20 00:57:57;;;;;;;4.70;3.65;;;;;;;13.33;38.26;101446.41;6285441;22;20019;-64
2022/04/20 01:00:25;;;;;;;5.78;3.33;;;;;;;13.29;38.49;101452.16;6311626;22;20341;-64
2022/04/20 01:02:52;;;;;;;5.45;3.13;;;;;;;13.28;38.44;101450.41;6339409;22;20015;-64
2022/04/20 01:05:19;;;;;;;5.50;3.65;;;;;;;13.24;38.58;101448.91;6339518;22;20015;-65
2022/04/20 01:08:14;;;;;;;4.35;3.60;;;;;;;13.23;38.38;101453.44;6311462;22;20018;-64
2022/04/20 01:11:06;;;;;;;5.57;3.50;;;;;;;13.20;38.46;101461.78;6302486;22;20104;-64
2022/04/20 01:14:01;;;;;;;4.93;3.65;;;;;;;13.14;38.58;101455.91;6311757;22;20025;-64
2022/04/20 01:16:47;;;;;;;4.68;3.42;;;;;;;13.09;38.66;101458.09;6339499;22;20510;-64
2022/04/20 01:19:40;;;;;;;4.63;3.63;;;;;;;13.04;38.82;101453.03;6311728;22;20019;-64
2022/04/20 01:22:28;;;;;;;4.35;3.70;;;;;;;13.02;38.67;101449.56;6311089;22;20353;-64
2022/04/20 01:25:15;;;;;;;5.15;3.35;;;;;;;12.97;38.74;101454.44;6338561;22;20079;-63
2022/04/20 01:28:07;;;;;;;4.00;3.60;;;;;;;12.95;38.82;101459.06;6311578;22;20461;-63
2022/04/20 01:30:52;;;;;;;9.60;3.90;;;;;;;12.92;38.79;101462.00;6338544;22;20480;-64
2022/04/20 01:33:36;;;;;;;5.15;3.78;;;;;;;12.87;38.88;101462.31;6311252;22;20010;-64
2022/04/20 01:36:05;;;;;;;5.75;3.60;;;;;;;12.84;38.95;101464.38;6311648;22;20053;-63
2022/04/20 01:38:32;;;;;;;7.00;3.80;;;;;;;12.82;38.89;101458.22;6311573;22;20348;-64
2022/04/20 01:40:59;;;;;;;6.22;3.97;;;;;;;12.81;39.10;101461.91;6338966;22;20017;-64
2022/04/20 01:43:25;;;;;;;5.22;3.55;;;;;;;12.78;39.20;101457.56;6311480;22;20010;-64
2022/04/20 01:46:06;;;;;;;4.43;4.00;;;;;;;12.76;39.19;101454.13;6288106;22;20018;-64
2022/04/20 01:48:48;;;;;;;4.60;3.97;;;;;;;12.71;39.17;101454.44;6311637;22;20042;-64
2022/04/20 01:51:52;;;;;;;5.22;3.55;;;;;;;12.70;39.25;101457.25;6339076;22;20029;-63
2022/04/20 01:54:37;;;;;;;3.97;3.58;;;;;;;12.64;39.19;101458.56;6339360;22;20106;-65
2022/04/20 01:57:39;;;;;;;7.35;3.92;;;;;;;12.60;39.33;101459.69;6182341;23;20072;-64
2022/04/20 02:00:12;;;;;;;4.65;3.80;;;;;;;12.58;39.41;101461.66;6312456;22;20018;-64
2022/04/20 02:03:03;;;;;;;5.32;3.63;;;;;;;12.55;39.42;101467.25;6311347;22;20019;-64
2022/04/20 02:05:43;;;;;;;5.82;3.83;;;;;;;12.54;39.31;101457.44;6311438;22;20011;-65
2022/04/20 02:08:20;;;;;;;5.80;4.15;;;;;;;12.52;39.34;101459.38;6311581;22;20022;-66
2022/04/20 02:11:07;;;;;;;5.57;3.67;;;;;;;12.48;39.43;101459.69;6338057;22;20064;-65
2022/04/20 02:13:34;;;;;;;5.00;3.88;;;;;;;12.44;39.53;101458.19;6311395;22;20472;-64
2022/04/20 02:16:03;;;;;;;6.15;4.22;;;;;;;12.40;39.62;101454.84;6311229;22;20014;-64
2022/04/20 02:18:50;;;;;;;6.38;3.95;;;;;;;12.39;39.71;101447.72;6315220;22;20064;-64
2022/04/20 02:21:30;;;;;;;5.30;3.70;;;;;;;12.37;39.81;101455.03;6311062;22;20026;-64
2022/04/20 02:23:57;;;;;;;4.35;3.92;;;;;;;12.35;39.77;101456.97;6311294;22;20010;-64
2022/04/20 02:26:24;;;;;;;5.53;3.63;;;;;;;12.33;39.88;101458.91;6311332;22;20014;-65
2022/04/20 02:28:51;;;;;;;3.88;3.47;;;;;;;12.31;39.86;101459.03;6310378;22;20019;-65
2022/04/20 02:31:17;;;;;;;4.85;3.80;;;;;;;12.29;39.97;101460.97;6310592;22;20015;-65
2022/04/20 02:33:44;;;;;;;6.65;4.07;;;;;;;12.29;39.96;101465.47;6310826;22;20030;-66
2022/04/20 02:36:11;;;;;;;5.68;4.13;;;;;;;12.28;39.92;101466.44;6340625;22;20068;-64
2022/04/20 02:38:39;;;;;;;4.30;3.60;;;;;;;12.27;40.01;101464.72;6340599;22;20015;-64
2022/04/20 02:41:06;;;;;;;3.85;3.42;;;;;;;12.25;40.02;101461.28;6340705;22;20036;-65
2022/04/20 02:43:33;;;;;;;5.78;4.03;;;;;;;12.22;40.11;101469.56;6311685;22;20022;-64
2022/04/20 02:45:59;;;;;;;4.75;3.67;;;;;;;12.19;40.09;101465.25;6340823;22;20011;-65
2022/04/20 02:48:26;;;;;;;5.22;3.92;;;;;;;12.18;40.37;101466.22;6340875;22;20065;-64
2022/04/20 02:50:52;;;;;;;3.90;3.42;;;;;;;12.18;40.26;101471.59;6312345;22;20093;-65
2022/04/20 02:53:19;;;;;;;5.90;4.05;;;;;;;12.17;40.27;101464.50;6313016;22;20383;-64
2022/04/20 02:55:46;;;;;;;5.50;3.63;;;;;;;12.17;40.25;101472.56;6339510;22;20086;-65
2022/04/20 02:58:13;;;;;;;5.97;4.03;;;;;;;12.16;40.25;101470.84;6287298;22;20015;-64
2022/04/20 03:00:45;;;;;;;5.90;3.85;;;;;;;12.16;40.29;101472.69;6312708;22;20015;-64
2022/04/20 03:03:22;;;;;;;4.38;3.53;;;;;;;12.13;40.23;101468.34;6313195;22;20017;-64
2022/04/20 03:05:51;;;;;;;6.97;4.05;;;;;;;12.13;40.30;101470.19;6312872;22;20345;-64
2022/04/20 03:08:19;;;;;;;8.68;4.03;;;;;;;12.12;40.32;101474.72;6311932;22;20390;-63
2022/04/20 03:10:46;;;;;;;4.30;3.75;;;;;;;12.13;40.29;101472.88;6312482;22;20046;-65
2022/04/20 03:13:14;;;;;;;4.30;3.60;;;;;;;12.14;40.30;101475.47;6312896;22;20341;-64
2022/04/20 03:15:40;;;;;;;5.63;3.65;;;;;;;12.13;40.39;101481.81;6313098;22;20015;-64
2022/04/20 03:18:07;;;;;;;5.20;3.83;;;;;;;12.12;40.38;101484.63;6314414;22;20106;-64
2022/04/20 03:20:33;;;;;;;5.20;4.07;;;;;;;12.10;40.35;101479.34;6339381;22;20363;-63
2022/04/20 03:23:00;;;;;;;6.07;4.40;;;;;;;12.08;40.56;101486.66;6312464;22;20449;-64
2022/04/20 03:25:27;;;;;;;4.18;3.63;;;;;;;12.05;40.40;101485.03;6313188;22;20015;-63
2022/04/20 03:28:20;;;;;;;6.13;3.88;;;;;;;12.03;40.37;101491.47;6280936;22;20025;-64
2022/04/20 03:30:47;;;;;;;6.15;4.30;;;;;;;11.99;40.52;101492.66;6311435;22;20025;-64
2022/04/20 03:33:15;;;;;;;5.10;4.10;;;;;;;11.96;40.46;101491.03;6340261;22;20014;-64
2022/04/20 03:35:42;;;;;;;6.57;3.90;;;;;;;11.94;40.44;101494.78;6312609;22;20019;-64
2022/04/20 03:38:10;;;;;;;4.90;4.05;;;;;;;11.91;40.52;101486.91;6340142;22;20011;-64
2022/04/20 03:40:36;;;;;;;8.55;4.15;;;;;;;11.88;40.55;101496.03;6310891;22;20367;-65
2022/04/20 03:43:03;;;;;;;6.35;4.47;;;;;;;11.85;40.49;101504.31;6312324;22;20010;-64
2022/04/20 03:45:30;;;;;;;5.60;4.15;;;;;;;11.84;40.62;101499.03;6340467;22;20007;-64
2022/04/20 03:47:57;;;;;;;6.13;4.47;;;;;;;11.83;40.75;101502.69;6312246;22;20019;-63
2022/04/20 03:50:24;;;;;;;6.43;4.55;;;;;;;11.82;40.58;101503.66;6340205;22;20011;-64
2022/04/20 03:52:51;;;;;;;5.07;4.32;;;;;;;11.81;40.82;101507.31;6312252;22;20419;-63
2022/04/20 03:55:18;;;;;;;6.00;4.57;;;;;;;11.78;40.73;101501.16;6312433;22;20039;-65
2022/04/20 03:57:45;;;;;;;8.48;4.70;;;;;;;11.76;40.72;101504.88;6312314;22;20023;-64
2022/04/20 04:00:12;;;;;;;4.55;4.13;;;;;;;11.73;40.90;101497.88;6312093;22;20030;-64
2022/04/20 04:02:42;;;;;;;5.50;4.28;;;;;;;11.72;40.85;101503.34;6339838;22;20022;-64
2022/04/20 04:05:13;;;;;;;6.70;3.88;;;;;;;11.70;40.93;101507.97;6312060;22;20068;-65
2022/04/20 04:07:50;;;;;;;5.93;4.28;;;;;;;11.66;40.91;101501.94;6312323;22;20010;-64
2022/04/20 04:10:23;;;;;;;7.68;4.60;;;;;;;11.65;40.99;101502.88;6312000;22;20022;-63
2022/04/20 04:12:49;;;;;;;6.97;4.97;;;;;;;11.64;40.97;101501.16;6312416;22;20015;-63
2022/04/20 04:15:16;;;;;;;5.60;4.22;;;;;;;11.64;41.03;101503.84;6312435;22;20441;-64
2022/04/20 04:17:48;;;;;;;6.28;4.32;;;;;;;11.60;41.06;101504.16;6310802;22;20441;-64
2022/04/20 04:20:15;;;;;;;7.65;4.68;;;;;;;11.58;41.08;101501.56;6311881;22;20101;-63
2022/04/20 04:22:42;;;;;;;4.47;3.92;;;;;;;11.57;41.05;101504.34;6339774;22;20052;-64
2022/04/20 04:25:27;;;;;;;5.53;4.05;;;;;;;11.56;41.16;101508.00;6312230;22;20014;-63
2022/04/20 04:27:53;;;;;;;4.95;4.20;;;;;;;11.54;41.22;101508.09;6312020;22;20445;-64
2022/04/20 04:30:21;;;;;;;7.45;4.95;;;;;;;11.50;41.32;101509.25;6311028;22;20021;-63
2022/04/20 04:32:55;;;;;;;5.20;4.05;;;;;;;11.48;41.31;101513.00;6312086;22;20022;-64
2022/04/20 04:35:22;;;;;;;5.60;4.50;;;;;;;11.47;41.26;101517.53;6312103;22;20022;-63
2022/04/20 04:37:50;;;;;;;7.05;4.38;;;;;;;11.46;41.32;101523.88;6312500;22;20338;-64
2022/04/20 04:40:20;;;;;;;7.57;4.13;;;;;;;11.45;41.39;101519.44;6311479;22;20394;-64
2022/04/20 04:42:48;;;;;;;6.20;4.70;;;;;;;11.43;41.35;101513.31;6311888;22;20019;-65
2022/04/20 04:50:50;;;;;;;6.97;4.05;;;;;;;11.41;41.22;101521.47;6290012;22;20098;-64
2022/04/20 04:53:17;;;;;;;8.27;4.20;;;;;;;11.41;41.46;101524.16;6311674;22;20015;-64
2022/04/20 04:55:44;;;;;;;6.30;4.35;;;;;;;11.40;41.46;101525.13;6311947;22;20341;-64
2022/04/20 04:58:10;;;;;;;6.50;4.50;;;;;;;11.38;41.54;101535.13;6311741;22;20015;-65
2022/04/20 05:00:38;;;;;;;8.00;4.80;;;;;;;11.38;41.58;101536.94;6316598;22;20019;-64
2022/04/20 05:03:19;;;;;;;11.13;4.55;;;;;;;11.39;41.58;101538.66;6313653;22;20015;-64
2022/04/20 05:05:46;;;;;;;6.28;4.25;;;;;;;11.38;41.58;101545.00;6311392;22;20006;-65
2022/04/20 05:08:19;;;;;;;6.93;4.38;;;;;;;11.38;41.60;101545.00;6312067;22;20015;-64
2022/04/20 05:10:45;;;;;;;5.97;4.13;;;;;;;11.36;41.75;101552.31;6311539;22;20019;-64
2022/04/20 05:13:13;;;;;;;9.75;4.68;;;;;;;11.36;41.60;101552.31;6311748;22;20014;-64
2022/04/20 05:15:39;;;;;;;7.15;4.20;;;;;;;11.36;41.76;101545.09;6310579;22;20018;-62
2022/04/20 05:18:06;;;;;;;8.82;4.63;;;;;;;11.38;41.85;101553.94;6311524;22;20092;-64
2022/04/20 05:20:33;;;;;;;7.35;4.50;;;;;;;11.39;41.84;101561.06;6311344;22;20522;-65
2022/04/20 05:23:00;;;;;;;9.63;4.43;;;;;;;11.40;41.88;101565.47;6311793;22;20344;-64
2022/04/20 05:25:27;;;;;;;8.35;4.50;;;;;;;11.41;42.01;101559.13;6311652;22;20041;-63
2022/04/20 05:27:54;;;;;;;6.68;4.28;;;;;;;11.45;42.05;101566.03;6311130;22;20014;-63
2022/04/20 05:30:25;;;;;;;5.47;3.88;;;;;;;11.46;42.11;101558.84;6310576;22;20053;-65
2022/04/20 05:32:52;;;;;;;5.95;4.40;;;;;;;11.48;42.05;101556.91;6338889;22;20018;-63
2022/04/20 05:35:22;;;;;;;8.80;4.55;;;;;;;11.51;42.06;101566.63;6311930;22;20014;-64
2022/04/20 05:43:47;;;;;;;6.65;4.28;;;;;;;11.60;42.15;101563.34;6311520;22;20041;-64
2022/04/20 05:46:19;;;;;;;8.23;4.95;;;;;;;11.64;42.12;101563.03;6311061;22;20479;-64
2022/04/20 05:48:59;;;;;;;5.35;4.20;;;;;;;11.70;42.29;101559.09;6311075;22;20019;-63
2022/04/20 05:51:25;;;;;;;5.57;4.70;;;;;;;11.74;42.17;101566.00;6311124;22;20025;-64
2022/04/20 05:53:53;;;;;;;7.20;4.32;;;;;;;11.77;42.22;101568.50;6311098;22;20011;-63
2022/04/20 05:56:20;;;;;;;5.88;4.03;;;;;;;11.78;42.26;101557.66;6311507;22;20072;-64
2022/04/20 05:58:50;;;;;;;5.93;4.63;;;;;;;11.82;42.39;101558.34;6311227;22;20011;-64
2022/04/20 06:01:19;;;;;;;6.82;4.72;;;;;;;11.86;42.33;101549.09;6310585;22;20021;-64
2022/04/20 06:04:02;;;;;;;7.10;4.20;;;;;;;11.90;42.27;101550.66;6288630;22;20019;-64
2022/04/20 06:06:32;;;;;;;7.07;4.78;;;;;;;11.95;42.38;101542.28;6338756;22;20018;-64
2022/04/20 06:09:04;;;;;;;7.40;4.50;;;;;;;12.00;42.25;101543.69;6311194;22;20144;-64
2022/04/20 06:11:42;;;;;;;6.30;4.10;;;;;;;12.05;42.28;101546.94;6313002;22;20011;-64
2022/04/20 06:14:13;;;;;;;5.22;4.10;;;;;;;12.13;42.22;101553.66;6312831;22;20056;-64
2022/04/20 06:16:46;;;;;;;4.40;3.90;;;;;;;12.20;42.29;101550.47;6313637;22;20072;-65
2022/04/20 06:19:20;;;;;;;7.38;3.80;;;;;;;12.31;42.45;101553.28;6312974;22;20015;-64
2022/04/20 06:21:57;;;;;;;5.25;3.97;;;;;;;12.44;42.41;101556.03;6313165;22;20015;-64
2022/04/20 06:24:58;;;;;;;8.77;4.32;;;;;;;12.59;42.03;101554.13;6245563;23;20115;-65
2022/04/20 06:27:40;;;;;;;8.32;4.50;;;;;;;12.71;42.17;101556.88;6306418;22;20018;-64
2022/04/20 06:30:25;;;;;;;7.50;3.53;;;;;;;12.86;41.95;101567.56;6340566;22;20113;-64
2022/04/20 06:33:23;;;;;;;4.00;3.15;;;;;;;13.01;41.97;101555.72;6229620;22;20118;-64
2022/04/20 06:36:02;;;;;;;5.15;3.50;;;;;;;13.17;41.81;101558.22;6340393;22;20426;-65
2022/04/20 06:38:31;;;;;;;6.15;3.70;;;;;;;13.29;41.63;101560.03;6340844;22;20102;-64
2022/04/20 06:41:16;;;;;;;5.60;3.53;;;;;;;13.42;41.56;101552.84;6317374;22;20484;-63
2022/04/20 06:44:02;;;;;;;4.82;3.72;;;;;;;13.59;41.37;101551.63;6340918;22;20102;-63
2022/04/20 06:46:48;;;;;;;7.97;4.07;;;;;;;13.77;41.35;101555.66;6339620;22;20445;-63
2022/04/20 06:49:34;;;;;;;5.45;3.30;;;;;;;13.94;41.10;101552.59;6340593;22;20034;-66
2022/04/20 07:00:48;;;;;;;5.05;3.67;;;;;;;14.71;40.57;101561.25;6312342;22;20030;-65
2022/04/20 07:03:37;;;;;;;9.90;3.20;;;;;;;14.87;40.31;101559.09;6274887;22;20072;-64
2022/04/20 07:06:22;;;;;;;4.90;2.92;;;;;;;15.04;39.82;101557.78;6312803;22;20071;-64
2022/04/20 07:09:06;;;;;;;4.60;3.60;;;;;;;15.20;39.78;101555.59;6312988;22;20017;-64
2022/04/20 07:11:42;;;;;;;6.90;3.50;;;;;;;15.38;39.66;101558.66;6312688;22;20372;-64
2022/04/20 07:14:10;;;;;;;6.07;3.55;;;;;;;15.55;39.43;101547.34;6286924;22;20015;-65
2022/04/20 07:16:36;;;;;;;5.53;3.35;;;;;;;15.70;38.90;101556.13;6340501;22;20011;-64
2022/04/20 07:19:19;;;;;;;4.45;3.70;;;;;;;15.87;39.23;101557.47;6290712;22;20018;-63
2022/04/20 07:22:15;;;;;;;9.68;4.45;;;;;;;16.03;39.07;101559.78;6293248;22;20019;-64
2022/04/20 07:24:49;;;;;;;6.15;3.80;;;;;;;16.19;38.67;101557.50;6337975;22;20015;-65
2022/04/20 07:27:39;;;;;;;8.10;3.30;;;;;;;16.33;38.74;101562.63;6312972;22;20015;-65
2022/04/20 07:30:24;;;;;;;5.10;3.55;;;;;;;16.50;38.69;101562.09;6339938;22;20045;-66
2022/04/20 07:33:09;;;;;;;4.95;3.58;;;;;;;16.63;38.35;101561.91;6340298;22;20029;-67
2022/04/20 07:35:52;;;;;;;5.03;3.13;;;;;;;16.70;38.03;101565.00;6312306;22;20015;-65
2022/04/20 07:38:38;;;;;;;10.67;3.00;;;;;;;16.79;37.82;101559.66;6341013;22;20026;-65
2022/04/20 07:41:38;;;;;;;4.57;3.22;;;;;;;16.88;37.72;101565.28;6339602;22;20022;-66
2022/04/20 07:44:18;;;;;;;8.25;3.53;;;;;;;17.00;37.60;101564.22;6268563;22;20025;-65
2022/04/20 07:46:52;;;;;;;4.40;3.70;;;;;;;17.16;37.71;101567.34;6312272;22;20021;-65
2022/04/20 07:52:46;;;;;;;4.10;3.17;;;;;;;17.57;37.34;101566.41;6312524;22;20019;-64
2022/04/20 07:55:20;;;;;;;13.32;3.22;;;;;;;17.71;36.75;101560.63;6312482;22;20057;-64
2022/04/20 07:57:54;;;;;;;5.85;3.22;;;;;;;17.87;36.61;101567.41;6312476;22;20018;-64
2022/04/20 08:00:36;;;;;;;3.67;3.03;;;;;;;18.02;36.33;101566.03;6339362;22;20031;-64
2022/04/20 08:03:21;;;;;;;3.67;2.95;;;;;;;18.16;36.23;101570.19;6340132;22;20068;-64
2022/04/20 08:05:51;;;;;;;5.60;3.10;;;;;;;18.29;36.02;101563.50;6339802;22;20475;-64
2022/04/20 08:08:20;;;;;;;4.57;3.20;;;;;;;18.48;36.10;101568.09;6312423;22;20042;-64
2022/04/20 08:10:47;;;;;;;4.35;2.80;;;;;;;18.62;35.90;101570.44;6311808;22;20049;-64
2022/04/20 08:16:05;;;;;;;14.70;3.85;;;;;;;18.93;35.62;101581.16;6312316;22;20018;-64
2022/04/20 08:18:43;;;;;;;13.25;3.47;;;;;;;19.07;35.21;101586.16;6312406;22;20089;-64
2022/04/20 08:21:48;;;;;;;4.10;2.80;;;;;;;19.18;35.08;101585.97;6311726;22;20472;-65
2022/04/20 08:24:15;;;;;;;5.22;3.10;;;;;;;19.29;34.90;101587.69;6339711;22;20453;-64
2022/04/20 08:26:41;;;;;;;3.90;2.97;;;;;;;19.38;34.71;101581.38;6339867;22;20026;-65
2022/04/20 08:29:09;;;;;;;6.60;3.15;;;;;;;19.46;34.57;101576.03;6339606;22;20007;-64
2022/04/20 08:31:37;;;;;;;4.20;3.10;;;;;;;19.62;34.75;101578.16;6339504;22;20022;-64
2022/04/20 08:34:05;;;;;;;5.25;2.95;;;;;;;19.75;34.22;101586.00;6339717;22;20042;-64
2022/04/20 08:36:31;;;;;;;7.30;3.40;;;;;;;19.82;33.98;101582.50;6339733;22;20038;-65
2022/04/20 08:38:58;;;;;;;3.47;3.17;;;;;;;19.89;33.75;101585.50;6339537;22;20014;-64
2022/04/20 08:41:24;;;;;;;5.00;3.05;;;;;;;19.98;33.61;101579.13;6339207;22;20014;-65
2022/04/20 08:43:52;;;;;;;6.45;3.65;;;;;;;20.04;33.77;101574.94;6339664;22;20441;-66
2022/04/20 08:46:19;;;;;;;6.28;3.22;;;;;;;20.12;33.54;101575.91;6339600;22;20432;-67
2022/04/20 08:48:52;;;;;;;8.05;3.33;;;;;;;20.14;33.02;101570.31;6339364;22;20013;-69
2022/04/20 08:51:20;;;;;;;3.03;2.80;;;;;;;20.17;33.25;101576.31;6339304;22;20449;-68
2022/04/20 08:53:46;;;;;;;11.32;3.78;;;;;;;20.27;32.79;101573.50;6339514;22;20022;-68
2022/04/20 08:59:03;;;;;;;5.90;3.00;;;;;;;20.49;32.47;101583.16;6339107;22;20007;-65
2022/04/20 09:01:30;;;;;;;5.70;3.08;;;;;;;20.52;32.71;101585.56;6338896;22;20518;-65
2022/04/20 09:03:58;;;;;;;5.03;2.80;;;;;;;20.58;32.11;101579.47;6339506;22;20014;-66
2022/04/20 09:06:25;;;;;;;5.88;2.90;;;;;;;20.63;32.27;101585.34;6339697;22;20007;-67
2022/04/20 09:08:52;;;;;;;12.80;3.35;;;;;;;20.71;32.30;101579.94;6339616;22;20015;-64
2022/04/20 09:11:20;;;;;;;5.28;2.95;;;;;;;20.82;32.15;101576.16;6339511;22;20038;-64
2022/04/20 09:13:47;;;;;;;7.70;3.10;;;;;;;20.93;31.97;101563.09;6339800;22;20336;-64
2022/04/20 09:16:13;;;;;;;4.63;2.85;;;;;;;21.07;31.62;101563.53;6339320;22;20340;-64
2022/04/20 09:18:42;;;;;;;2.97;2.47;;;;;;;21.17;31.41;101564.28;6339630;22;20011;-64
2022/04/20 09:21:11;;;;;;;4.20;2.63;;;;;;;21.25;31.12;101567.09;6338857;22;20018;-64
2022/04/20 09:23:38;;;;;;;5.57;2.65;;;;;;;21.35;30.93;101561.53;6339386;22;20007;-64
2022/04/20 09:26:14;;;;;;;5.80;2.88;;;;;;;21.44;30.83;101555.09;6339291;22;20527;-64
2022/04/20 09:29:01;;;;;;;3.20;2.40;;;;;;;21.55;30.52;101561.16;6339191;22;20081;-64
2022/04/20 09:31:45;;;;;;;7.55;2.70;;;;;;;21.60;29.84;101560.66;6338476;22;20471;-64
2022/04/20 09:34:32;;;;;;;5.97;2.10;;;;;;;21.64;29.75;101547.53;6339477;22;20021;-63
2022/04/20 09:37:13;;;;;;;3.80;2.22;;;;;;;21.71;29.73;101545.84;6339470;22;20091;-64
2022/04/20 09:39:45;;;;;;;3.78;2.60;;;;;;;21.84;29.57;101543.50;6339367;22;20022;-64
2022/04/20 09:42:11;;;;;;;9.13;2.88;;;;;;;22.00;29.44;101540.84;6339160;22;20022;-64
2022/04/20 09:45:12;;;;;;;5.22;2.75;;;;;;;22.13;29.60;101543.13;6339505;22;20379;-64
2022/04/20 09:50:26;;;;;;;4.55;2.75;;;;;;;22.40;29.55;101534.66;6338867;22;20018;-63
2022/04/20 09:52:59;;;;;;;4.60;2.85;;;;;;;22.51;28.86;101528.84;6311450;22;20040;-64
2022/04/20 09:55:29;;;;;;;8.10;2.42;;;;;;;22.58;29.03;101534.50;6339469;22;20021;-64
2022/04/20 09:58:15;;;;;;;5.63;2.20;;;;;;;22.69;28.93;101536.88;6339633;22;20484;-64
2022/04/20 10:00:48;;;;;;;5.75;2.97;;;;;;;22.75;28.85;101533.47;6337845;22;20015;-65
2022/04/20 10:03:28;;;;;;;7.75;3.30;;;;;;;22.74;28.75;101526.28;6339210;22;20025;-64
2022/04/20 10:05:59;;;;;;;4.22;2.30;;;;;;;22.76;28.73;101526.94;6339300;22;20520;-65
2022/04/20 10:08:26;;;;;;;3.38;2.50;;;;;;;22.79;29.05;101529.34;6339322;22;20064;-63
2022/04/20 10:10:55;;;;;;;4.10;2.13;;;;;;;22.81;28.77;101524.59;6338284;22;20344;-64
2022/04/20 10:13:22;;;;;;;10.38;2.55;;;;;;;22.81;28.11;101524.59;6339032;22;20021;-64
2022/04/20 10:16:05;;;;;;;4.20;1.85;;;;;;;22.83;27.73;101525.28;6339324;22;20328;-65
2022/04/20 10:18:44;;;;;;;8.50;2.30;;;;;;;22.87;27.45;101528.53;6338868;22;20388;-65
2022/04/20 10:21:11;;;;;;;4.75;2.28;;;;;;;22.88;27.89;101519.28;6338605;22;20116;-66
2022/04/20 10:23:47;;;;;;;4.13;2.38;;;;;;;22.94;27.69;101518.56;6338493;22;20073;-63
2022/04/20 10:26:15;;;;;;;2.72;2.13;;;;;;;23.03;27.66;101505.72;6338968;22;20333;-64
2022/04/20 10:28:50;;;;;;;2.78;2.00;;;;;;;23.06;27.28;101508.16;6338936;22;20011;-65
2022/04/20 10:31:23;;;;;;;4.13;2.30;;;;;;;23.10;27.52;101499.41;6338201;22;20452;-64
2022/04/20 10:33:59;;;;;;;2.60;2.30;;;;;;;23.15;27.15;101496.13;6311120;22;20433;-64
2022/04/20 10:36:35;;;;;;;3.35;2.30;;;;;;;23.23;27.75;101490.63;6311144;22;20326;-63
2022/04/20 10:39:22;;;;;;;3.33;2.10;;;;;;;23.30;27.25;101490.78;6311318;22;20011;-63
2022/04/20 10:42:25;;;;;;;3.67;2.13;;;;;;;23.34;27.13;101493.00;6318837;22;20113;-62
2022/04/20 10:44:55;;;;;;;2.20;2.00;;;;;;;23.37;26.84;101491.78;6338968;22;20045;-63
2022/04/20 10:47:27;;;;;;;2.85;2.25;;;;;;;23.44;26.72;101485.41;6338108;22;20049;-63
2022/04/20 10:50:12;;;;;;;3.90;2.50;;;;;;;23.48;26.77;101471.34;6338861;22;20019;-63
2022/04/20 10:52:41;;;;;;;4.32;2.38;;;;;;;23.59;26.65;101481.97;6338454;22;20015;-62
2022/04/20 10:55:11;;;;;;;3.35;2.28;;;;;;;23.65;26.51;101478.50;6311244;22;20010;-63
2022/04/20 10:57:42;;;;;;;2.63;2.05;;;;;;;23.66;26.11;101482.94;6341274;22;20015;-63
2022/04/20 11:00:17;;;;;;;3.10;2.25;;;;;;;23.68;25.97;101484.47;6340345;22;20014;-64
2022/04/20 11:02:55;;;;;;;2.25;2.05;;;;;;;23.74;25.97;101467.31;6340194;22;20429;-66
2022/04/20 11:05:23;;;;;;;4.82;2.40;;;;;;;23.82;25.95;101471.94;6340480;22;20098;-65
2022/04/20 11:08:25;;;;;;;2.78;2.13;;;;;;;23.81;25.89;101464.72;6340381;22;20042;-65
2022/04/20 11:20:07;;;;;;;4.45;2.20;;;;;;;24.28;26.15;101458.25;6312298;22;20464;-66
2022/04/20 11:22:44;;;;;;;3.67;2.10;;;;;;;24.30;25.66;101442.47;6312668;22;20023;-66
2022/04/20 11:25:11;;;;;;;3.38;2.55;;;;;;;24.34;25.24;101450.16;6340541;22;20041;-65
2022/04/20 11:27:38;;;;;;;4.28;2.13;;;;;;;24.34;25.41;101452.88;6340505;22;20021;-64
2022/04/20 11:30:06;;;;;;;2.72;2.25;;;;;;;24.35;25.30;101449.09;6339444;22;20018;-65
2022/04/20 11:32:34;;;;;;;4.55;2.33;;;;;;;24.37;25.13;101448.91;6339347;22;20323;-64
2022/04/20 11:35:15;;;;;;;4.63;2.20;;;;;;;24.45;25.40;101448.00;6311655;22;20053;-64
2022/04/20 11:37:56;;;;;;;2.10;1.90;;;;;;;24.54;25.07;101445.03;6340629;22;20085;-64
2022/04/20 11:40:23;;;;;;;6.35;2.42;;;;;;;24.55;24.66;101445.88;6312632;22;20014;-66
2022/04/20 11:43:07;;;;;;;4.72;2.05;;;;;;;24.52;24.72;101451.72;6340087;22;20021;-66
2022/04/20 11:45:53;;;;;;;3.05;2.42;;;;;;;24.57;24.88;101441.06;6340285;22;20018;-65
2022/04/20 11:48:20;;;;;;;3.33;2.60;;;;;;;24.56;24.71;101439.34;6339863;22;20022;-63
2022/04/20 11:50:56;;;;;;;4.97;2.42;;;;;;;24.58;24.85;101429.03;6339520;22;20449;-64
2022/04/20 11:53:41;;;;;;;2.22;2.03;;;;;;;24.62;24.49;101419.38;6339892;22;20090;-65
2022/04/20 11:56:16;;;;;;;2.42;2.20;;;;;;;24.66;24.66;101426.19;6340096;22;20038;-65
2022/04/20 11:58:53;;;;;;;3.00;2.50;;;;;;;24.63;24.35;101419.19;6339455;22;20017;-65
2022/04/20 12:01:22;;;;;;;4.20;2.67;;;;;;;24.59;24.31;101414.25;6339802;22;20019;-64
2022/04/20 12:03:50;;;;;;;4.32;2.90;;;;;;;24.54;24.22;101412.06;6339754;22;20039;-65
2022/04/20 12:06:19;;;;;;;3.35;2.45;;;;;;;24.52;24.44;101413.25;6312063;22;20107;-65
2022/04/20 12:08:47;;;;;;;3.05;2.20;;;;;;;24.53;24.44;101412.25;6339552;22;20011;-64
2022/04/20 12:11:15;;;;;;;3.30;2.25;;;;;;;24.55;24.19;101410.19;6312554;22;20015;-65
2022/04/20 12:13:42;;;;;;;2.88;2.40;;;;;;;24.59;24.30;101408.75;6339649;22;20120;-65
2022/04/20 12:16:10;;;;;;;2.78;2.47;;;;;;;24.65;24.50;101406.13;6339863;22;20026;-65
2022/04/20 12:18:43;;;;;;;5.47;2.72;;;;;;;24.68;24.47;101404.88;6339841;22;20030;-65
2022/04/20 12:21:44;;;;;;;2.97;2.45;;;;;;;24.71;24.15;101401.78;6339355;22;20011;-65
2022/04/20 12:24:20;;;;;;;5.10;2.25;;;;;;;24.83;24.18;101408.50;6312120;22;20015;-65
2022/04/20 12:26:51;;;;;;;3.55;2.25;;;;;;;24.89;24.09;101407.75;6339724;22;20014;-65
2022/04/20 12:29:20;;;;;;;3.92;2.58;;;;;;;24.90;24.01;101400.34;6339578;22;20020;-65
2022/04/20 12:31:49;;;;;;;5.28;2.70;;;;;;;24.89;23.94;101394.00;6339352;22;20015;-66
2022/04/20 12:34:18;;;;;;;6.65;2.80;;;;;;;24.97;24.01;101391.19;6311697;22;20018;-65